sensor_id;sensor_type;location;lat;lon;timestamp;P1;durP1;ratioP1;P2;durP2;ratioP2
10283;SDS011;5187;52.378;9.018;2022-08-04T00:01:06;6.75;;;3.80;;
10283;SDS011;5187;52.378;9.018;2022-08-04T00:03:39;6.80;;;4.38;;
10283;SDS011;5187;52.378;9.018;2022-08-04T00:06:11;5.30;;;4.13;;
10283;SDS011;5187;52.378;9.018;2022-08-04T00:08:43;8.48;;;4.20;;
10283;SDS011;5187;52.378;9.018;2022-08-04T00:11:13;6.65;;;4.22;;
10283;SDS011;5187;52.378;9.018;2022-08-04T00:13:44;7.75;;;4.53;;
10283;SDS011;5187;52.378;9.018;2022-08-04T00:16:29;10.45;;;4.55;;
10283;SDS011;5187;52.378;9.018;2022-08-04T00:19:04;6.78;;;4.32;;
10283;SDS011;5187;52.378;9.018;2022-08-04T00:21:35;7.65;;;4.72;;
10283;SDS011;5187;52.378;9.018;2022-08-04T00:24:05;5.57;;;4.15;;
10283;SDS011;5187;52.378;9.018;2022-08-04T00:26:37;7.80;;;4.40;;
10283;SDS011;5187;52.378;9.018;2022-08-04T00:29:08;9.55;;;4.53;;
10283;SDS011;5187;52.378;9.018;2022-08-04T00:31:37;5.53;;;3.97;;
10283;SDS011;5187;52.378;9.018;2022-08-04T00:34:22;5.60;;;4.10;;
10283;SDS011;5187;52.378;9.018;2022-08-04T00:36:52;4.55;;;3.55;;
10283;SDS011;5187;52.378;9.018;2022-08-04T00:39:21;5.80;;;3.80;;
10283;SDS011;5187;52.378;9.018;2022-08-04T00:44:40;8.40;;;4.55;;
10283;SDS011;5187;52.378;9.018;2022-08-04T00:47:16;9.32;;;4.22;;
10283;SDS011;5187;52.378;9.018;2022-08-04T00:49:53;9.63;;;4.82;;
10283;SDS011;5187;52.378;9.018;2022-08-04T00:52:32;5.10;;;4.10;;
10283;SDS011;5187;52.378;9.018;2022-08-04T00:55:03;9.88;;;4.80;;
10283;SDS011;5187;52.378;9.018;2022-08-04T00:57:38;7.55;;;4.68;;
10283;SDS011;5187;52.378;9.018;2022-08-04T01:00:11;8.60;;;4.53;;
10283;SDS011;5187;52.378;9.018;2022-08-04T01:02:44;5.78;;;4.20;;
10283;SDS011;5187;52.378;9.018;2022-08-04T01:05:19;6.07;;;4.03;;
10283;SDS011;5187;52.378;9.018;2022-08-04T01:10:44;9.13;;;4.65;;
10283;SDS011;5187;52.378;9.018;2022-08-04T01:13:24;8.85;;;4.40;;
10283;SDS011;5187;52.378;9.018;2022-08-04T01:15:56;8.15;;;4.53;;
10283;SDS011;5187;52.378;9.018;2022-08-04T01:18:29;7.05;;;4.65;;
10283;SDS011;5187;52.378;9.018;2022-08-04T01:21:04;7.72;;;4.75;;
10283;SDS011;5187;52.378;9.018;2022-08-04T01:26:28;6.90;;;4.65;;
10283;SDS011;5187;52.378;9.018;2022-08-04T01:29:21;6.40;;;4.60;;
10283;SDS011;5187;52.378;9.018;2022-08-04T01:31:57;6.43;;;4.45;;
10283;SDS011;5187;52.378;9.018;2022-08-04T01:34:28;8.45;;;4.65;;
10283;SDS011;5187;52.378;9.018;2022-08-04T01:36:58;6.22;;;4.30;;
10283;SDS011;5187;52.378;9.018;2022-08-04T01:39:29;5.85;;;4.57;;
10283;SDS011;5187;52.378;9.018;2022-08-04T01:42:09;5.22;;;4.70;;
10283;SDS011;5187;52.378;9.018;2022-08-04T01:44:59;5.80;;;4.80;;
10283;SDS011;5187;52.378;9.018;2022-08-04T01:47:28;7.75;;;4.70;;
10283;SDS011;5187;52.378;9.018;2022-08-04T01:50:01;7.63;;;4.25;;
10283;SDS011;5187;52.378;9.018;2022-08-04T01:52:31;7.30;;;5.07;;
10283;SDS011;5187;52.378;9.018;2022-08-04T01:55:02;8.07;;;5.28;;
10283;SDS011;5187;52.378;9.018;2022-08-04T01:57:31;9.50;;;4.85;;
10283;SDS011;5187;52.378;9.018;2022-08-04T02:00:06;5.97;;;5.20;;
10283;SDS011;5187;52.378;9.018;2022-08-04T02:02:35;7.32;;;4.75;;
10283;SDS011;5187;52.378;9.018;2022-08-04T02:05:03;7.57;;;5.40;;
10283;SDS011;5187;52.378;9.018;2022-08-04T02:07:49;10.13;;;5.88;;
10283;SDS011;5187;52.378;9.018;2022-08-04T02:10:22;7.30;;;5.18;;
10283;SDS011;5187;52.378;9.018;2022-08-04T02:12:56;9.65;;;5.40;;
10283;SDS011;5187;52.378;9.018;2022-08-04T02:15:35;6.82;;;5.78;;
10283;SDS011;5187;52.378;9.018;2022-08-04T02:18:08;8.60;;;5.18;;
10283;SDS011;5187;52.378;9.018;2022-08-04T02:20:42;6.80;;;5.50;;
10283;SDS011;5187;52.378;9.018;2022-08-04T02:23:13;5.85;;;5.10;;
10283;SDS011;5187;52.378;9.018;2022-08-04T02:25:43;6.93;;;5.00;;
10283;SDS011;5187;52.378;9.018;2022-08-04T02:28:20;6.55;;;4.70;;
10283;SDS011;5187;52.378;9.018;2022-08-04T02:30:53;8.95;;;5.20;;
10283;SDS011;5187;52.378;9.018;2022-08-04T02:33:25;7.25;;;5.50;;
10283;SDS011;5187;52.378;9.018;2022-08-04T02:35:58;8.45;;;4.55;;
10283;SDS011;5187;52.378;9.018;2022-08-04T02:38:30;7.50;;;4.70;;
10283;SDS011;5187;52.378;9.018;2022-08-04T02:41:04;8.80;;;4.93;;
10283;SDS011;5187;52.378;9.018;2022-08-04T02:43:33;7.45;;;4.78;;
10283;SDS011;5187;52.378;9.018;2022-08-04T02:46:19;5.70;;;4.60;;
10283;SDS011;5187;52.378;9.018;2022-08-04T02:48:48;8.00;;;4.85;;
10283;SDS011;5187;52.378;9.018;2022-08-04T02:51:19;9.15;;;4.90;;
10283;SDS011;5187;52.378;9.018;2022-08-04T02:53:49;8.88;;;5.05;;
10283;SDS011;5187;52.378;9.018;2022-08-04T02:56:19;5.43;;;4.45;;
10283;SDS011;5187;52.378;9.018;2022-08-04T02:58:50;8.27;;;4.97;;
10283;SDS011;5187;52.378;9.018;2022-08-04T03:01:21;7.97;;;4.90;;
10283;SDS011;5187;52.378;9.018;2022-08-04T03:03:52;6.28;;;4.53;;
10283;SDS011;5187;52.378;9.018;2022-08-04T03:06:43;6.97;;;5.10;;
10283;SDS011;5187;52.378;9.018;2022-08-04T03:09:20;6.53;;;4.53;;
10283;SDS011;5187;52.378;9.018;2022-08-04T03:12:07;7.72;;;5.07;;
10283;SDS011;5187;52.378;9.018;2022-08-04T03:14:48;6.43;;;4.93;;
10283;SDS011;5187;52.378;9.018;2022-08-04T03:17:30;6.97;;;5.18;;
10283;SDS011;5187;52.378;9.018;2022-08-04T03:20:39;6.22;;;5.13;;
10283;SDS011;5187;52.378;9.018;2022-08-04T03:23:17;8.32;;;4.78;;
10283;SDS011;5187;52.378;9.018;2022-08-04T03:25:53;8.02;;;5.03;;
10283;SDS011;5187;52.378;9.018;2022-08-04T03:28:50;7.07;;;4.50;;
10283;SDS011;5187;52.378;9.018;2022-08-04T03:34:24;8.48;;;5.53;;
10283;SDS011;5187;52.378;9.018;2022-08-04T03:39:53;9.13;;;4.75;;
10283;SDS011;5187;52.378;9.018;2022-08-04T03:43:00;6.50;;;5.00;;
10283;SDS011;5187;52.378;9.018;2022-08-04T03:48:51;9.85;;;5.47;;
10283;SDS011;5187;52.378;9.018;2022-08-04T03:51:28;6.68;;;5.22;;
10283;SDS011;5187;52.378;9.018;2022-08-04T03:54:32;6.20;;;5.07;;
10283;SDS011;5187;52.378;9.018;2022-08-04T03:57:09;7.47;;;5.38;;
10283;SDS011;5187;52.378;9.018;2022-08-04T03:59:52;6.68;;;4.50;;
10283;SDS011;5187;52.378;9.018;2022-08-04T04:05:19;6.60;;;5.35;;
10283;SDS011;5187;52.378;9.018;2022-08-04T04:08:11;8.05;;;5.80;;
10283;SDS011;5187;52.378;9.018;2022-08-04T04:11:07;8.98;;;5.68;;
10283;SDS011;5187;52.378;9.018;2022-08-04T04:13:48;8.68;;;5.35;;
10283;SDS011;5187;52.378;9.018;2022-08-04T04:16:24;10.05;;;5.72;;
10283;SDS011;5187;52.378;9.018;2022-08-04T04:19:09;7.55;;;5.53;;
10283;SDS011;5187;52.378;9.018;2022-08-04T04:24:34;8.88;;;4.95;;
10283;SDS011;5187;52.378;9.018;2022-08-04T04:27:08;7.57;;;5.53;;
10283;SDS011;5187;52.378;9.018;2022-08-04T04:32:21;8.05;;;5.00;;
10283;SDS011;5187;52.378;9.018;2022-08-04T04:34:55;9.82;;;5.32;;
10283;SDS011;5187;52.378;9.018;2022-08-04T04:37:34;10.13;;;5.72;;
10283;SDS011;5187;52.378;9.018;2022-08-04T04:40:18;8.48;;;5.03;;
10283;SDS011;5187;52.378;9.018;2022-08-04T04:42:55;9.93;;;5.72;;
10283;SDS011;5187;52.378;9.018;2022-08-04T04:45:29;10.18;;;5.88;;
10283;SDS011;5187;52.378;9.018;2022-08-04T04:48:03;9.43;;;6.00;;
10283;SDS011;5187;52.378;9.018;2022-08-04T04:50:46;10.00;;;6.25;;
10283;SDS011;5187;52.378;9.018;2022-08-04T04:53:20;9.63;;;6.40;;
10283;SDS011;5187;52.378;9.018;2022-08-04T04:55:52;10.20;;;6.53;;
10283;SDS011;5187;52.378;9.018;2022-08-04T04:58:23;7.72;;;6.20;;
10283;SDS011;5187;52.378;9.018;2022-08-04T05:00:57;9.20;;;6.60;;
10283;SDS011;5187;52.378;9.018;2022-08-04T05:03:35;7.70;;;5.65;;
10283;SDS011;5187;52.378;9.018;2022-08-04T05:06:08;7.47;;;5.90;;
10283;SDS011;5187;52.378;9.018;2022-08-04T05:08:52;7.63;;;6.50;;
10283;SDS011;5187;52.378;9.018;2022-08-04T05:11:35;9.50;;;6.43;;
10283;SDS011;5187;52.378;9.018;2022-08-04T05:14:08;9.93;;;6.43;;
10283;SDS011;5187;52.378;9.018;2022-08-04T05:17:00;9.70;;;6.60;;
10283;SDS011;5187;52.378;9.018;2022-08-04T05:19:33;9.68;;;5.70;;
10283;SDS011;5187;52.378;9.018;2022-08-04T05:22:06;8.80;;;5.93;;
10283;SDS011;5187;52.378;9.018;2022-08-04T05:24:40;8.55;;;6.40;;
10283;SDS011;5187;52.378;9.018;2022-08-04T05:27:13;8.73;;;6.22;;
10283;SDS011;5187;52.378;9.018;2022-08-04T05:29:44;8.13;;;6.10;;
10283;SDS011;5187;52.378;9.018;2022-08-04T05:32:14;8.52;;;5.68;;
10283;SDS011;5187;52.378;9.018;2022-08-04T05:34:44;7.65;;;5.68;;
10283;SDS011;5187;52.378;9.018;2022-08-04T05:37:16;6.88;;;6.00;;
10283;SDS011;5187;52.378;9.018;2022-08-04T05:39:47;9.98;;;6.35;;
10283;SDS011;5187;52.378;9.018;2022-08-04T05:42:18;9.70;;;5.78;;
10283;SDS011;5187;52.378;9.018;2022-08-04T05:44:48;8.23;;;5.03;;
10283;SDS011;5187;52.378;9.018;2022-08-04T05:47:17;8.50;;;5.40;;
10283;SDS011;5187;52.378;9.018;2022-08-04T05:49:48;7.75;;;5.95;;
10283;SDS011;5187;52.378;9.018;2022-08-04T05:52:27;9.60;;;5.18;;
10283;SDS011;5187;52.378;9.018;2022-08-04T05:54:57;7.93;;;5.53;;
10283;SDS011;5187;52.378;9.018;2022-08-04T05:57:27;10.40;;;5.57;;
10283;SDS011;5187;52.378;9.018;2022-08-04T05:59:58;8.00;;;5.30;;
10283;SDS011;5187;52.378;9.018;2022-08-04T06:02:47;7.80;;;4.88;;
10283;SDS011;5187;52.378;9.018;2022-08-04T06:05:16;8.30;;;4.90;;
10283;SDS011;5187;52.378;9.018;2022-08-04T06:07:45;5.65;;;4.15;;
10283;SDS011;5187;52.378;9.018;2022-08-04T06:10:36;7.53;;;4.40;;
10283;SDS011;5187;52.378;9.018;2022-08-04T06:13:07;9.38;;;4.60;;
10283;SDS011;5187;52.378;9.018;2022-08-04T06:15:57;7.95;;;4.40;;
10283;SDS011;5187;52.378;9.018;2022-08-04T06:18:27;7.40;;;4.80;;
10283;SDS011;5187;52.378;9.018;2022-08-04T06:21:16;8.57;;;3.92;;
10283;SDS011;5187;52.378;9.018;2022-08-04T06:23:45;7.93;;;4.00;;
10283;SDS011;5187;52.378;9.018;2022-08-04T06:26:26;7.60;;;4.30;;
10283;SDS011;5187;52.378;9.018;2022-08-04T06:28:56;8.50;;;4.20;;
10283;SDS011;5187;52.378;9.018;2022-08-04T06:31:25;8.50;;;3.85;;
10283;SDS011;5187;52.378;9.018;2022-08-04T06:34:31;5.85;;;4.07;;
10283;SDS011;5187;52.378;9.018;2022-08-04T06:37:00;6.18;;;3.80;;
10283;SDS011;5187;52.378;9.018;2022-08-04T06:39:28;6.57;;;3.45;;
10283;SDS011;5187;52.378;9.018;2022-08-04T06:42:00;7.53;;;3.50;;
10283;SDS011;5187;52.378;9.018;2022-08-04T06:44:49;5.95;;;3.40;;
10283;SDS011;5187;52.378;9.018;2022-08-04T06:47:18;6.18;;;3.28;;
10283;SDS011;5187;52.378;9.018;2022-08-04T06:49:48;7.30;;;3.20;;
10283;SDS011;5187;52.378;9.018;2022-08-04T06:52:37;7.43;;;3.13;;
10283;SDS011;5187;52.378;9.018;2022-08-04T06:55:06;5.88;;;3.10;;
10283;SDS011;5187;52.378;9.018;2022-08-04T06:57:35;7.60;;;3.33;;
10283;SDS011;5187;52.378;9.018;2022-08-04T07:00:06;5.80;;;2.80;;
10283;SDS011;5187;52.378;9.018;2022-08-04T07:02:38;6.65;;;2.67;;
10283;SDS011;5187;52.378;9.018;2022-08-04T07:05:06;6.72;;;3.20;;
10283;SDS011;5187;52.378;9.018;2022-08-04T07:07:37;5.15;;;2.67;;
10283;SDS011;5187;52.378;9.018;2022-08-04T07:10:23;6.45;;;2.78;;
10283;SDS011;5187;52.378;9.018;2022-08-04T07:12:53;6.50;;;2.40;;
10283;SDS011;5187;52.378;9.018;2022-08-04T07:15:24;8.88;;;2.80;;
10283;SDS011;5187;52.378;9.018;2022-08-04T07:17:53;7.07;;;2.65;;
10283;SDS011;5187;52.378;9.018;2022-08-04T07:20:25;10.15;;;2.90;;
10283;SDS011;5187;52.378;9.018;2022-08-04T07:23:01;5.90;;;3.10;;
10283;SDS011;5187;52.378;9.018;2022-08-04T07:25:29;5.72;;;2.70;;
10283;SDS011;5187;52.378;9.018;2022-08-04T07:28:18;5.93;;;3.08;;
10283;SDS011;5187;52.378;9.018;2022-08-04T07:30:49;6.38;;;2.22;;
10283;SDS011;5187;52.378;9.018;2022-08-04T07:33:20;5.07;;;2.28;;
10283;SDS011;5187;52.378;9.018;2022-08-04T07:36:03;5.20;;;2.45;;
10283;SDS011;5187;52.378;9.018;2022-08-04T07:38:36;4.30;;;2.67;;
10283;SDS011;5187;52.378;9.018;2022-08-04T07:41:21;5.78;;;2.45;;
10283;SDS011;5187;52.378;9.018;2022-08-04T07:44:07;4.43;;;2.42;;
10283;SDS011;5187;52.378;9.018;2022-08-04T07:46:37;5.18;;;2.40;;
10283;SDS011;5187;52.378;9.018;2022-08-04T07:49:06;6.60;;;2.30;;
10283;SDS011;5187;52.378;9.018;2022-08-04T07:51:34;6.07;;;2.40;;
10283;SDS011;5187;52.378;9.018;2022-08-04T07:54:03;6.63;;;2.75;;
10283;SDS011;5187;52.378;9.018;2022-08-04T07:56:34;3.88;;;2.47;;
10283;SDS011;5187;52.378;9.018;2022-08-04T07:59:03;2.92;;;2.58;;
10283;SDS011;5187;52.378;9.018;2022-08-04T08:01:32;3.15;;;2.30;;
10283;SDS011;5187;52.378;9.018;2022-08-04T08:04:05;6.20;;;2.60;;
10283;SDS011;5187;52.378;9.018;2022-08-04T08:06:35;2.88;;;2.40;;
10283;SDS011;5187;52.378;9.018;2022-08-04T08:09:09;6.80;;;2.50;;
10283;SDS011;5187;52.378;9.018;2022-08-04T08:11:40;3.10;;;2.33;;
10283;SDS011;5187;52.378;9.018;2022-08-04T08:14:28;3.55;;;2.40;;
10283;SDS011;5187;52.378;9.018;2022-08-04T08:16:58;4.95;;;2.20;;
10283;SDS011;5187;52.378;9.018;2022-08-04T08:19:29;4.13;;;2.33;;
10283;SDS011;5187;52.378;9.018;2022-08-04T08:21:58;4.30;;;2.22;;
10283;SDS011;5187;52.378;9.018;2022-08-04T08:24:27;4.82;;;2.25;;
10283;SDS011;5187;52.378;9.018;2022-08-04T08:26:56;3.38;;;2.35;;
10283;SDS011;5187;52.378;9.018;2022-08-04T08:29:25;4.65;;;2.30;;
10283;SDS011;5187;52.378;9.018;2022-08-04T08:31:55;2.80;;;2.20;;
10283;SDS011;5187;52.378;9.018;2022-08-04T08:34:33;3.47;;;2.35;;
10283;SDS011;5187;52.378;9.018;2022-08-04T08:37:03;6.82;;;2.20;;
10283;SDS011;5187;52.378;9.018;2022-08-04T08:39:34;5.00;;;2.05;;
10283;SDS011;5187;52.378;9.018;2022-08-04T08:47:49;2.72;;;2.40;;
10283;SDS011;5187;52.378;9.018;2022-08-04T08:50:40;2.42;;;2.10;;
10283;SDS011;5187;52.378;9.018;2022-08-04T08:53:24;2.92;;;2.50;;
10283;SDS011;5187;52.378;9.018;2022-08-04T08:56:01;4.57;;;2.50;;
10283;SDS011;5187;52.378;9.018;2022-08-04T08:58:43;2.50;;;2.30;;
10283;SDS011;5187;52.378;9.018;2022-08-04T09:01:16;5.75;;;2.13;;
10283;SDS011;5187;52.378;9.018;2022-08-04T09:03:55;3.38;;;2.55;;
10283;SDS011;5187;52.378;9.018;2022-08-04T09:06:49;2.50;;;2.30;;
10283;SDS011;5187;52.378;9.018;2022-08-04T09:09:26;3.47;;;2.10;;
10283;SDS011;5187;52.378;9.018;2022-08-04T09:12:04;2.30;;;2.15;;
10283;SDS011;5187;52.378;9.018;2022-08-04T09:14:35;2.70;;;2.30;;
10283;SDS011;5187;52.378;9.018;2022-08-04T09:17:10;2.70;;;2.15;;
10283;SDS011;5187;52.378;9.018;2022-08-04T09:19:41;2.85;;;2.30;;
10283;SDS011;5187;52.378;9.018;2022-08-04T09:22:15;4.55;;;2.35;;
10283;SDS011;5187;52.378;9.018;2022-08-04T09:24:47;4.88;;;2.22;;
10283;SDS011;5187;52.378;9.018;2022-08-04T09:27:18;3.70;;;2.35;;
10283;SDS011;5187;52.378;9.018;2022-08-04T09:29:50;2.83;;;2.20;;
10283;SDS011;5187;52.378;9.018;2022-08-04T09:32:22;2.45;;;2.25;;
10283;SDS011;5187;52.378;9.018;2022-08-04T09:37:43;2.60;;;2.17;;
10283;SDS011;5187;52.378;9.018;2022-08-04T09:40:17;3.00;;;2.28;;
10283;SDS011;5187;52.378;9.018;2022-08-04T09:43:09;2.58;;;2.13;;
10283;SDS011;5187;52.378;9.018;2022-08-04T09:45:42;2.95;;;2.22;;
10283;SDS011;5187;52.378;9.018;2022-08-04T09:48:16;3.25;;;2.38;;
10283;SDS011;5187;52.378;9.018;2022-08-04T09:50:49;2.60;;;2.40;;
10283;SDS011;5187;52.378;9.018;2022-08-04T09:53:24;4.30;;;2.17;;
10283;SDS011;5187;52.378;9.018;2022-08-04T09:55:59;3.20;;;2.58;;
10283;SDS011;5187;52.378;9.018;2022-08-04T09:58:38;4.53;;;2.30;;
10283;SDS011;5187;52.378;9.018;2022-08-04T10:01:08;2.63;;;2.42;;
10283;SDS011;5187;52.378;9.018;2022-08-04T10:03:37;2.58;;;2.33;;
10283;SDS011;5187;52.378;9.018;2022-08-04T10:06:09;5.35;;;2.53;;
10283;SDS011;5187;52.378;9.018;2022-08-04T10:11:34;2.72;;;2.53;;
10283;SDS011;5187;52.378;9.018;2022-08-04T10:14:27;5.38;;;2.63;;
10283;SDS011;5187;52.378;9.018;2022-08-04T10:17:03;2.70;;;2.50;;
10283;SDS011;5187;52.378;9.018;2022-08-04T10:19:35;4.15;;;2.28;;
10283;SDS011;5187;52.378;9.018;2022-08-04T10:22:08;3.10;;;2.40;;
10283;SDS011;5187;52.378;9.018;2022-08-04T10:24:59;2.40;;;2.20;;
10283;SDS011;5187;52.378;9.018;2022-08-04T10:27:53;3.92;;;2.40;;
10283;SDS011;5187;52.378;9.018;2022-08-04T10:30:22;4.07;;;2.33;;
10283;SDS011;5187;52.378;9.018;2022-08-04T10:32:52;2.65;;;2.20;;
10283;SDS011;5187;52.378;9.018;2022-08-04T10:35:23;3.78;;;2.45;;
10283;SDS011;5187;52.378;9.018;2022-08-04T10:37:56;2.40;;;2.20;;
10283;SDS011;5187;52.378;9.018;2022-08-04T10:40:30;3.05;;;2.40;;
10283;SDS011;5187;52.378;9.018;2022-08-04T10:43:10;2.33;;;1.98;;
10283;SDS011;5187;52.378;9.018;2022-08-04T10:45:49;2.30;;;2.10;;
10283;SDS011;5187;52.378;9.018;2022-08-04T10:48:25;2.45;;;1.80;;
10283;SDS011;5187;52.378;9.018;2022-08-04T10:51:01;3.38;;;1.98;;
10283;SDS011;5187;52.378;9.018;2022-08-04T10:56:17;2.90;;;2.10;;
10283;SDS011;5187;52.378;9.018;2022-08-04T10:58:48;2.53;;;2.22;;
10283;SDS011;5187;52.378;9.018;2022-08-04T11:01:38;3.70;;;2.10;;
10283;SDS011;5187;52.378;9.018;2022-08-04T11:04:35;2.28;;;2.08;;
10283;SDS011;5187;52.378;9.018;2022-08-04T11:07:05;4.40;;;2.35;;
10283;SDS011;5187;52.378;9.018;2022-08-04T11:09:34;2.58;;;2.00;;
10283;SDS011;5187;52.378;9.018;2022-08-04T11:12:04;2.33;;;2.10;;
10283;SDS011;5187;52.378;9.018;2022-08-04T11:14:36;2.03;;;1.92;;
10283;SDS011;5187;52.378;9.018;2022-08-04T11:17:09;2.30;;;2.10;;
10283;SDS011;5187;52.378;9.018;2022-08-04T11:19:40;3.33;;;2.10;;
10283;SDS011;5187;52.378;9.018;2022-08-04T11:22:18;2.75;;;1.90;;
10283;SDS011;5187;52.378;9.018;2022-08-04T11:25:06;3.08;;;2.00;;
10283;SDS011;5187;52.378;9.018;2022-08-04T11:27:41;2.72;;;2.10;;
10283;SDS011;5187;52.378;9.018;2022-08-04T11:30:13;3.10;;;2.33;;
10283;SDS011;5187;52.378;9.018;2022-08-04T11:32:43;3.22;;;2.00;;
10283;SDS011;5187;52.378;9.018;2022-08-04T11:35:15;4.75;;;2.00;;
10283;SDS011;5187;52.378;9.018;2022-08-04T11:37:49;3.65;;;2.20;;
10283;SDS011;5187;52.378;9.018;2022-08-04T11:40:21;4.63;;;2.10;;
10283;SDS011;5187;52.378;9.018;2022-08-04T11:43:05;3.65;;;1.80;;
10283;SDS011;5187;52.378;9.018;2022-08-04T11:46:13;3.67;;;1.90;;
10283;SDS011;5187;52.378;9.018;2022-08-04T11:48:46;4.15;;;1.92;;
10283;SDS011;5187;52.378;9.018;2022-08-04T11:51:17;4.18;;;1.77;;
10283;SDS011;5187;52.378;9.018;2022-08-04T11:56:30;2.63;;;2.20;;
10283;SDS011;5187;52.378;9.018;2022-08-04T11:59:16;3.22;;;2.10;;
10283;SDS011;5187;52.378;9.018;2022-08-04T12:02:10;2.17;;;1.88;;
10283;SDS011;5187;52.378;9.018;2022-08-04T12:04:53;1.73;;;1.52;;
10283;SDS011;5187;52.378;9.018;2022-08-04T12:07:27;3.13;;;2.10;;
10283;SDS011;5187;52.378;9.018;2022-08-04T12:10:10;1.90;;;1.77;;
10283;SDS011;5187;52.378;9.018;2022-08-04T12:15:49;4.28;;;1.90;;
10283;SDS011;5187;52.378;9.018;2022-08-04T12:18:23;2.13;;;1.83;;
10283;SDS011;5187;52.378;9.018;2022-08-04T12:20:57;2.83;;;1.80;;
10283;SDS011;5187;52.378;9.018;2022-08-04T12:23:31;2.42;;;1.80;;
10283;SDS011;5187;52.378;9.018;2022-08-04T12:26:02;3.05;;;1.98;;
10283;SDS011;5187;52.378;9.018;2022-08-04T12:28:38;4.55;;;1.92;;
10283;SDS011;5187;52.378;9.018;2022-08-04T12:31:29;4.60;;;2.22;;
10283;SDS011;5187;52.378;9.018;2022-08-04T12:34:00;4.13;;;2.10;;
10283;SDS011;5187;52.378;9.018;2022-08-04T12:36:34;2.92;;;1.73;;
10283;SDS011;5187;52.378;9.018;2022-08-04T12:39:08;2.08;;;1.90;;
10283;SDS011;5187;52.378;9.018;2022-08-04T12:41:39;3.35;;;1.92;;
10283;SDS011;5187;52.378;9.018;2022-08-04T12:44:09;5.65;;;2.17;;
10283;SDS011;5187;52.378;9.018;2022-08-04T12:47:04;3.63;;;2.13;;
10283;SDS011;5187;52.378;9.018;2022-08-04T12:49:56;2.45;;;2.08;;
10283;SDS011;5187;52.378;9.018;2022-08-04T12:52:40;2.05;;;1.90;;
10283;SDS011;5187;52.378;9.018;2022-08-04T12:55:28;4.38;;;1.80;;
10283;SDS011;5187;52.378;9.018;2022-08-04T12:57:59;4.18;;;1.70;;
10283;SDS011;5187;52.378;9.018;2022-08-04T13:00:32;4.65;;;1.80;;
10283;SDS011;5187;52.378;9.018;2022-08-04T13:03:08;2.33;;;1.90;;
10283;SDS011;5187;52.378;9.018;2022-08-04T13:05:40;5.32;;;2.03;;
10283;SDS011;5187;52.378;9.018;2022-08-04T13:08:10;2.40;;;1.60;;
10283;SDS011;5187;52.378;9.018;2022-08-04T13:10:51;4.10;;;1.77;;
10283;SDS011;5187;52.378;9.018;2022-08-04T13:13:22;6.68;;;1.90;;
10283;SDS011;5187;52.378;9.018;2022-08-04T13:15:55;3.00;;;2.00;;
10283;SDS011;5187;52.378;9.018;2022-08-04T13:18:24;3.90;;;2.00;;
10283;SDS011;5187;52.378;9.018;2022-08-04T13:21:08;2.45;;;1.60;;
10283;SDS011;5187;52.378;9.018;2022-08-04T13:23:49;1.88;;;1.50;;
10283;SDS011;5187;52.378;9.018;2022-08-04T13:26:45;2.10;;;1.60;;
10283;SDS011;5187;52.378;9.018;2022-08-04T13:29:28;3.08;;;1.70;;
10283;SDS011;5187;52.378;9.018;2022-08-04T13:32:26;2.42;;;1.50;;
10283;SDS011;5187;52.378;9.018;2022-08-04T13:34:56;1.63;;;1.52;;
10283;SDS011;5187;52.378;9.018;2022-08-04T13:38:11;1.73;;;1.58;;
10283;SDS011;5187;52.378;9.018;2022-08-04T13:40:41;2.05;;;1.80;;
10283;SDS011;5187;52.378;9.018;2022-08-04T13:43:20;3.63;;;1.70;;
10283;SDS011;5187;52.378;9.018;2022-08-04T13:46:12;3.08;;;2.10;;
10283;SDS011;5187;52.378;9.018;2022-08-04T13:48:54;1.85;;;1.40;;
10283;SDS011;5187;52.378;9.018;2022-08-04T13:51:54;2.35;;;1.60;;
10283;SDS011;5187;52.378;9.018;2022-08-04T13:54:27;2.60;;;1.60;;
10283;SDS011;5187;52.378;9.018;2022-08-04T13:57:10;3.55;;;1.40;;
10283;SDS011;5187;52.378;9.018;2022-08-04T13:59:40;2.15;;;1.50;;
10283;SDS011;5187;52.378;9.018;2022-08-04T14:02:29;2.75;;;1.48;;
10283;SDS011;5187;52.378;9.018;2022-08-04T14:05:01;1.75;;;1.50;;
10283;SDS011;5187;52.378;9.018;2022-08-04T14:07:44;2.92;;;1.58;;
10283;SDS011;5187;52.378;9.018;2022-08-04T14:10:14;2.88;;;1.50;;
10283;SDS011;5187;52.378;9.018;2022-08-04T14:12:44;4.20;;;1.67;;
10283;SDS011;5187;52.378;9.018;2022-08-04T14:15:28;3.65;;;1.60;;
10283;SDS011;5187;52.378;9.018;2022-08-04T14:18:21;2.60;;;1.60;;
10283;SDS011;5187;52.378;9.018;2022-08-04T14:20:58;3.90;;;1.63;;
10283;SDS011;5187;52.378;9.018;2022-08-04T14:23:27;2.70;;;1.60;;
10283;SDS011;5187;52.378;9.018;2022-08-04T14:26:00;2.10;;;1.70;;
10283;SDS011;5187;52.378;9.018;2022-08-04T14:28:40;2.00;;;1.80;;
10283;SDS011;5187;52.378;9.018;2022-08-04T14:31:28;3.40;;;1.90;;
10283;SDS011;5187;52.378;9.018;2022-08-04T14:33:57;1.70;;;1.60;;
10283;SDS011;5187;52.378;9.018;2022-08-04T14:36:41;6.75;;;1.90;;
10283;SDS011;5187;52.378;9.018;2022-08-04T14:39:36;5.60;;;1.90;;
10283;SDS011;5187;52.378;9.018;2022-08-04T14:42:07;3.28;;;1.85;;
10283;SDS011;5187;52.378;9.018;2022-08-04T14:47:27;12.40;;;3.28;;
10283;SDS011;5187;52.378;9.018;2022-08-04T14:50:18;17.77;;;3.42;;
10283;SDS011;5187;52.378;9.018;2022-08-04T14:52:47;10.70;;;3.47;;
10283;SDS011;5187;52.378;9.018;2022-08-04T14:55:16;13.40;;;3.60;;
10283;SDS011;5187;52.378;9.018;2022-08-04T14:57:48;7.57;;;3.00;;
10283;SDS011;5187;52.378;9.018;2022-08-04T15:00:37;8.90;;;3.05;;
10283;SDS011;5187;52.378;9.018;2022-08-04T15:03:07;7.40;;;2.92;;
10283;SDS011;5187;52.378;9.018;2022-08-04T15:05:36;6.72;;;2.75;;
10283;SDS011;5187;52.378;9.018;2022-08-04T15:08:25;8.18;;;2.92;;
10283;SDS011;5187;52.378;9.018;2022-08-04T15:11:01;5.85;;;2.85;;
10283;SDS011;5187;52.378;9.018;2022-08-04T15:13:31;7.55;;;3.03;;
10283;SDS011;5187;52.378;9.018;2022-08-04T15:16:00;4.40;;;2.47;;
10283;SDS011;5187;52.378;9.018;2022-08-04T15:18:36;6.88;;;2.85;;
10283;SDS011;5187;52.378;9.018;2022-08-04T15:21:05;7.32;;;2.40;;
10283;SDS011;5187;52.378;9.018;2022-08-04T15:23:34;3.75;;;2.20;;
10283;SDS011;5187;52.378;9.018;2022-08-04T15:26:05;4.60;;;2.58;;
10283;SDS011;5187;52.378;9.018;2022-08-04T15:28:37;3.17;;;2.00;;
10283;SDS011;5187;52.378;9.018;2022-08-04T15:31:07;2.90;;;2.20;;
10283;SDS011;5187;52.378;9.018;2022-08-04T15:33:56;4.30;;;2.25;;
10283;SDS011;5187;52.378;9.018;2022-08-04T15:36:41;3.83;;;2.03;;
10283;SDS011;5187;52.378;9.018;2022-08-04T15:39:27;2.83;;;2.20;;
10283;SDS011;5187;52.378;9.018;2022-08-04T15:41:59;2.60;;;2.20;;
10283;SDS011;5187;52.378;9.018;2022-08-04T15:44:57;3.60;;;2.10;;
10283;SDS011;5187;52.378;9.018;2022-08-04T15:47:29;3.05;;;2.38;;
10283;SDS011;5187;52.378;9.018;2022-08-04T15:50:05;4.78;;;2.28;;
10283;SDS011;5187;52.378;9.018;2022-08-04T15:55:36;2.90;;;2.42;;
10283;SDS011;5187;52.378;9.018;2022-08-04T15:58:05;3.25;;;2.38;;
10283;SDS011;5187;52.378;9.018;2022-08-04T16:06:42;4.60;;;2.70;;
10283;SDS011;5187;52.378;9.018;2022-08-04T16:09:26;4.68;;;2.60;;
10283;SDS011;5187;52.378;9.018;2022-08-04T16:18:01;6.97;;;2.58;;
10283;SDS011;5187;52.378;9.018;2022-08-04T16:20:30;4.50;;;2.50;;
10283;SDS011;5187;52.378;9.018;2022-08-04T16:23:02;4.72;;;2.60;;
10283;SDS011;5187;52.378;9.018;2022-08-04T16:25:40;4.65;;;2.78;;
10283;SDS011;5187;52.378;9.018;2022-08-04T16:30:58;3.63;;;2.38;;
10283;SDS011;5187;52.378;9.018;2022-08-04T16:33:28;4.78;;;2.70;;
10283;SDS011;5187;52.378;9.018;2022-08-04T16:36:10;3.67;;;2.60;;
10283;SDS011;5187;52.378;9.018;2022-08-04T16:39:03;6.85;;;2.50;;
10283;SDS011;5187;52.378;9.018;2022-08-04T16:41:38;4.57;;;2.50;;
10283;SDS011;5187;52.378;9.018;2022-08-04T16:47:14;5.25;;;2.55;;
10283;SDS011;5187;52.378;9.018;2022-08-04T16:50:03;5.78;;;2.60;;
10283;SDS011;5187;52.378;9.018;2022-08-04T16:52:32;4.50;;;2.70;;
10283;SDS011;5187;52.378;9.018;2022-08-04T16:55:09;4.00;;;2.40;;
10283;SDS011;5187;52.378;9.018;2022-08-04T16:57:38;5.55;;;2.20;;
10283;SDS011;5187;52.378;9.018;2022-08-04T17:00:07;4.47;;;2.58;;
10283;SDS011;5187;52.378;9.018;2022-08-04T17:02:36;3.05;;;2.20;;
10283;SDS011;5187;52.378;9.018;2022-08-04T17:05:06;3.55;;;2.22;;